createdAt,value
2023-03-07T00:00:47.789Z,3.81
2023-03-07T00:03:16.901Z,3.85
2023-03-07T00:05:44.463Z,3.91
2023-03-07T00:08:11.616Z,3.98
2023-03-07T00:10:38.665Z,3.99
2023-03-07T00:13:05.857Z,3.91
2023-03-07T00:15:32.998Z,4.01
2023-03-07T00:18:00.083Z,4.02
2023-03-07T00:20:27.637Z,4.00
2023-03-07T00:22:54.654Z,3.95
2023-03-07T00:25:21.982Z,3.95
2023-03-07T00:27:49.307Z,3.96
2023-03-07T00:30:16.552Z,3.97
2023-03-07T00:32:43.653Z,4.01
2023-03-07T00:35:10.680Z,4.01
2023-03-07T00:37:37.766Z,4.01
2023-03-07T00:40:06.889Z,3.97
2023-03-07T00:42:34.085Z,3.89
2023-03-07T00:45:01.187Z,3.98
2023-03-07T00:47:28.977Z,3.96
2023-03-07T00:49:56.033Z,3.96
2023-03-07T00:52:23.546Z,4.01
2023-03-07T00:54:50.544Z,3.98
2023-03-07T00:57:18.135Z,4.03
2023-03-07T00:59:45.218Z,4.03
2023-03-07T01:02:12.242Z,4.00
2023-03-07T01:04:39.240Z,3.91
2023-03-07T01:07:06.306Z,3.74
2023-03-07T01:09:33.323Z,3.66
2023-03-07T01:12:00.450Z,3.67
2023-03-07T01:14:28.476Z,3.68
2023-03-07T01:16:55.564Z,3.66
2023-03-07T01:19:23.622Z,3.62
2023-03-07T01:21:50.721Z,3.54
2023-03-07T01:24:18.262Z,3.61
2023-03-07T01:26:45.400Z,3.58
2023-03-07T01:29:12.743Z,3.52
2023-03-07T01:31:39.875Z,3.51
2023-03-07T01:34:07.221Z,3.47
2023-03-07T01:36:36.631Z,3.51
2023-03-07T01:39:06.558Z,3.42
2023-03-07T01:41:35.688Z,3.49
2023-03-07T01:44:05.947Z,3.51
2023-03-07T01:46:44.745Z,3.45
2023-03-07T01:49:19.521Z,3.38
2023-03-07T01:51:53.147Z,3.39
2023-03-07T01:54:22.201Z,3.36
2023-03-07T01:56:49.362Z,3.43
2023-03-07T01:59:29.628Z,3.44
2023-03-07T02:02:01.325Z,3.40
2023-03-07T02:04:36.696Z,3.43
2023-03-07T02:07:04.165Z,3.34
2023-03-07T02:09:33.649Z,3.38
2023-03-07T02:12:01.744Z,3.40
2023-03-07T02:14:29.044Z,3.40
2023-03-07T02:16:56.145Z,3.35
2023-03-07T02:19:23.136Z,3.36
2023-03-07T02:22:05.066Z,3.35
2023-03-07T02:25:10.689Z,3.33
2023-03-07T02:27:39.748Z,3.35
2023-03-07T02:30:08.296Z,3.35
2023-03-07T02:32:35.441Z,3.31
2023-03-07T02:35:02.614Z,3.35
2023-03-07T02:37:37.039Z,3.32
2023-03-07T02:40:08.242Z,3.34
2023-03-07T02:42:39.291Z,3.31
2023-03-07T02:45:10.326Z,3.36
2023-03-07T02:47:37.570Z,3.30
2023-03-07T02:50:05.518Z,3.42
2023-03-07T02:52:32.640Z,3.36
2023-03-07T02:54:59.849Z,3.36
2023-03-07T02:57:26.882Z,3.38
2023-03-07T02:59:53.908Z,3.39
2023-03-07T03:02:20.927Z,3.28
2023-03-07T03:04:48.028Z,3.38
2023-03-07T03:07:15.118Z,3.38
2023-03-07T03:09:42.135Z,3.30
2023-03-07T03:12:09.299Z,3.31
2023-03-07T03:14:36.326Z,3.26
2023-03-07T03:17:03.909Z,3.27
2023-03-07T03:19:31.016Z,3.32
2023-03-07T03:21:58.956Z,3.28
2023-03-07T03:24:26.011Z,3.35
2023-03-07T03:26:57.572Z,3.34
2023-03-07T03:29:26.072Z,3.40
2023-03-07T03:31:53.073Z,3.39
2023-03-07T03:34:20.491Z,3.40
2023-03-07T03:36:47.880Z,3.34
2023-03-07T03:39:14.956Z,3.36
2023-03-07T03:41:42.023Z,3.37
2023-03-07T03:44:09.631Z,3.36
2023-03-07T03:46:37.425Z,3.39
2023-03-07T03:49:04.515Z,3.37
2023-03-07T03:51:31.523Z,3.39
2023-03-07T03:53:58.889Z,3.39
2023-03-07T03:56:27.729Z,3.45
2023-03-07T03:58:57.684Z,3.46
2023-03-07T04:01:27.701Z,3.45
2023-03-07T04:03:56.470Z,3.34
2023-03-07T04:06:32.480Z,3.41
2023-03-07T04:08:59.749Z,3.42
2023-03-07T04:11:27.736Z,3.45
2023-03-07T04:13:54.962Z,3.54
2023-03-07T04:16:22.693Z,3.53
2023-03-07T04:18:53.080Z,3.42
2023-03-07T04:21:20.959Z,3.53
2023-03-07T04:23:55.501Z,3.57
2023-03-07T04:26:22.746Z,3.56
2023-03-07T04:28:49.998Z,3.53
2023-03-07T04:31:23.091Z,3.43
2023-03-07T04:33:51.032Z,3.52
2023-03-07T04:36:18.401Z,3.51
2023-03-07T04:38:47.559Z,3.49
2023-03-07T04:41:17.820Z,3.43
2023-03-07T04:43:45.090Z,3.36
2023-03-07T04:46:14.726Z,3.44
2023-03-07T04:48:41.997Z,3.34
2023-03-07T04:51:09.129Z,3.35
2023-03-07T04:53:36.400Z,3.24
2023-03-07T04:56:06.243Z,3.28
2023-03-07T04:58:33.949Z,3.29
2023-03-07T05:01:02.693Z,3.22
2023-03-07T05:06:15.718Z,3.26
2023-03-07T05:08:42.840Z,3.32
2023-03-07T05:11:09.973Z,3.27
2023-03-07T05:13:37.070Z,3.21
2023-03-07T05:16:04.531Z,3.15
2023-03-07T05:18:31.848Z,3.20
2023-03-07T05:20:59.193Z,3.15
2023-03-07T05:23:26.428Z,2.97
2023-03-07T05:25:53.461Z,2.73
2023-03-07T05:28:21.254Z,2.79
2023-03-07T05:30:48.408Z,2.63
2023-03-07T05:33:15.975Z,2.66
2023-03-07T05:35:43.324Z,2.56
2023-03-07T05:38:10.557Z,2.49
2023-03-07T05:40:37.604Z,2.35
2023-03-07T05:43:04.957Z,2.42
2023-03-07T05:45:32.084Z,2.44
2023-03-07T05:47:59.557Z,2.48
2023-03-07T05:50:27.592Z,2.43
2023-03-07T05:52:54.786Z,2.45
2023-03-07T05:55:22.230Z,2.46
2023-03-07T05:57:50.161Z,2.27
2023-03-07T06:00:17.730Z,2.29
2023-03-07T06:02:44.923Z,2.25
2023-03-07T06:05:11.997Z,2.22
2023-03-07T06:07:39.100Z,2.14
2023-03-07T06:10:07.596Z,2.15
2023-03-07T06:12:34.621Z,2.07
2023-03-07T06:15:01.643Z,1.96
2023-03-07T06:17:29.440Z,1.93
2023-03-07T06:19:59.674Z,1.69
2023-03-07T06:22:27.725Z,1.57
2023-03-07T06:24:55.107Z,1.41
2023-03-07T06:27:22.413Z,1.26
2023-03-07T06:29:49.503Z,1.19
2023-03-07T06:32:16.729Z,1.19
2023-03-07T06:34:43.851Z,1.10
2023-03-07T06:37:10.977Z,1.04
2023-03-07T06:39:38.057Z,1.17
2023-03-07T06:42:05.261Z,1.13
2023-03-07T06:44:32.340Z,1.17
2023-03-07T06:46:59.534Z,1.08
2023-03-07T06:49:26.880Z,1.00
2023-03-07T06:51:54.808Z,1.04
2023-03-07T06:54:22.060Z,1.01
2023-03-07T06:56:49.145Z,1.05
2023-03-07T06:59:16.219Z,1.06
2023-03-07T07:01:43.510Z,0.99
2023-03-07T07:04:13.245Z,0.91
2023-03-07T07:06:40.397Z,0.92
2023-03-07T07:09:07.470Z,0.97
2023-03-07T07:11:34.808Z,0.98
2023-03-07T07:14:01.873Z,0.97
2023-03-07T07:16:29.188Z,0.99
2023-03-07T07:18:56.545Z,0.99
2023-03-07T07:21:24.305Z,1.05
2023-03-07T07:23:51.794Z,1.01
2023-03-07T07:26:19.041Z,0.98
2023-03-07T07:28:46.483Z,1.03
2023-03-07T07:31:13.778Z,1.03
2023-03-07T07:33:41.033Z,1.10
2023-03-07T07:36:08.843Z,1.12
2023-03-07T07:38:36.165Z,1.02
2023-03-07T07:41:03.291Z,1.08
2023-03-07T07:43:30.513Z,1.16
2023-03-07T07:45:58.643Z,1.16
2023-03-07T07:48:25.762Z,1.14
2023-03-07T07:50:52.870Z,1.21
2023-03-07T07:53:19.922Z,1.24
2023-03-07T07:55:48.798Z,1.17
2023-03-07T07:58:15.840Z,1.06
2023-03-07T08:00:42.965Z,1.08
2023-03-07T08:03:10.008Z,1.05
2023-03-07T08:05:37.288Z,1.06
2023-03-07T08:08:04.511Z,1.20
2023-03-07T08:10:31.813Z,1.27
2023-03-07T08:12:58.845Z,1.25
2023-03-07T08:15:25.878Z,1.28
2023-03-07T08:17:53.585Z,1.28
2023-03-07T08:20:22.544Z,1.34
2023-03-07T08:22:50.500Z,1.37
2023-03-07T08:25:23.666Z,1.44
2023-03-07T08:27:55.408Z,1.33
2023-03-07T08:30:23.672Z,1.49
2023-03-07T08:32:52.618Z,1.55
2023-03-07T08:35:20.012Z,1.57
2023-03-07T08:37:48.825Z,1.63
2023-03-07T08:40:16.599Z,1.68
2023-03-07T08:42:43.712Z,1.63
2023-03-07T08:45:11.182Z,1.61
2023-03-07T08:47:38.315Z,1.61
2023-03-07T08:50:05.948Z,1.69
2023-03-07T08:52:33.023Z,1.76
2023-03-07T08:55:00.148Z,1.65
2023-03-07T08:57:27.498Z,1.74
2023-03-07T08:59:54.492Z,1.83
2023-03-07T09:02:22.033Z,1.86
2023-03-07T09:04:49.129Z,1.90
2023-03-07T09:07:16.370Z,1.77
2023-03-07T09:09:43.417Z,1.88
2023-03-07T09:12:10.517Z,1.86
2023-03-07T09:14:37.558Z,1.84
2023-03-07T09:17:04.766Z,1.92
2023-03-07T09:19:31.812Z,1.87
2023-03-07T09:21:58.872Z,1.93
2023-03-07T09:24:25.922Z,2.03
2023-03-07T09:26:53.545Z,2.17
2023-03-07T09:29:20.980Z,2.05
2023-03-07T09:31:48.100Z,2.02
2023-03-07T09:34:15.936Z,2.08
2023-03-07T09:36:42.995Z,2.11
2023-03-07T09:39:14.371Z,2.10
2023-03-07T09:42:16.526Z,2.02
2023-03-07T09:45:01.893Z,2.10
2023-03-07T09:47:50.942Z,2.09
2023-03-07T09:50:28.648Z,2.08
2023-03-07T09:53:01.839Z,2.18
2023-03-07T09:55:31.218Z,2.24
2023-03-07T09:58:09.370Z,2.27
2023-03-07T10:00:42.870Z,2.29
2023-03-07T10:03:43.911Z,2.28
2023-03-07T10:06:16.502Z,2.34
2023-03-07T10:08:43.590Z,2.47
2023-03-07T10:11:25.973Z,2.51
2023-03-07T10:14:30.048Z,2.61
2023-03-07T10:17:05.409Z,2.72
2023-03-07T10:19:41.715Z,2.71
2023-03-07T10:22:34.621Z,2.67
2023-03-07T10:25:43.450Z,2.67
2023-03-07T10:28:33.119Z,2.60
2023-03-07T10:31:16.085Z,2.57
2023-03-07T10:33:46.816Z,2.51
2023-03-07T10:36:19.758Z,2.51
2023-03-07T10:39:04.495Z,2.50
2023-03-07T10:41:31.728Z,2.47
2023-03-07T10:43:58.977Z,2.54
2023-03-07T10:46:30.923Z,2.66
2023-03-07T10:49:09.872Z,2.57
2023-03-07T10:51:59.799Z,2.40
2023-03-07T10:54:38.349Z,2.59
2023-03-07T10:57:07.016Z,2.67
2023-03-07T10:59:35.482Z,2.60
2023-03-07T11:02:05.802Z,2.63
2023-03-07T11:04:45.710Z,2.56
2023-03-07T11:07:28.596Z,2.46
2023-03-07T11:09:58.549Z,2.32
2023-03-07T11:12:29.304Z,2.25
2023-03-07T11:15:21.418Z,1.94
2023-03-07T11:17:48.995Z,1.67
2023-03-07T11:20:30.670Z,1.66
2023-03-07T11:23:16.724Z,1.55
2023-03-07T11:25:44.856Z,1.45
2023-03-07T11:28:23.777Z,1.43
2023-03-07T11:30:57.570Z,1.37
2023-03-07T11:33:59.047Z,1.34
2023-03-07T11:36:35.955Z,1.46
2023-03-07T11:39:38.373Z,1.54
2023-03-07T11:42:23.000Z,1.57
2023-03-07T11:45:29.756Z,1.44
2023-03-07T11:48:12.121Z,1.60
2023-03-07T11:50:46.761Z,1.60
2023-03-07T11:53:27.706Z,1.56
2023-03-07T11:56:25.491Z,1.58
2023-03-07T11:58:58.609Z,1.68
2023-03-07T12:01:43.540Z,1.78
2023-03-07T12:04:38.549Z,1.90
2023-03-07T12:07:14.294Z,1.95
2023-03-07T12:09:54.567Z,1.94
2023-03-07T12:13:01.167Z,2.09
2023-03-07T12:15:39.507Z,2.17
2023-03-07T12:18:37.175Z,2.19
2023-03-07T12:21:10.205Z,1.98
2023-03-07T12:23:42.378Z,1.89
2023-03-07T12:26:19.887Z,1.81
2023-03-07T12:28:58.665Z,1.83
2023-03-07T12:31:40.420Z,1.86
2023-03-07T12:34:29.038Z,1.95
2023-03-07T12:37:03.038Z,2.03
2023-03-07T12:39:49.633Z,2.05
2023-03-07T12:42:38.487Z,2.09
2023-03-07T12:45:12.609Z,2.10
2023-03-07T12:47:58.467Z,2.16
2023-03-07T12:51:00.579Z,2.14
2023-03-07T12:53:40.462Z,2.24
2023-03-07T12:56:19.846Z,2.29
2023-03-07T12:59:07.471Z,2.33
2023-03-07T13:01:40.220Z,2.45
2023-03-07T13:04:18.093Z,2.29
2023-03-07T13:06:46.688Z,2.34
2023-03-07T13:09:24.993Z,2.47
2023-03-07T13:12:24.603Z,2.58
2023-03-07T13:15:03.838Z,2.64
2023-03-07T13:17:30.955Z,2.73
2023-03-07T13:20:16.377Z,2.67
2023-03-07T13:22:43.537Z,2.65
2023-03-07T13:25:19.366Z,2.63
2023-03-07T13:27:57.976Z,2.60
2023-03-07T13:30:31.702Z,2.62
2023-03-07T13:32:58.699Z,2.73
2023-03-07T13:35:31.824Z,2.45
2023-03-07T13:38:33.007Z,2.42
2023-03-07T13:41:04.988Z,2.37
2023-03-07T13:43:57.349Z,2.29
2023-03-07T13:46:42.520Z,2.42
2023-03-07T13:49:09.570Z,2.55
2023-03-07T13:51:36.777Z,2.59
2023-03-07T13:54:10.359Z,2.62
2023-03-07T13:56:42.407Z,2.55
2023-03-07T13:59:09.424Z,2.61
2023-03-07T14:01:40.546Z,2.57
2023-03-07T14:04:42.109Z,2.66
2023-03-07T14:07:24.988Z,2.65
2023-03-07T14:09:59.003Z,2.59
2023-03-07T14:13:05.474Z,2.56
2023-03-07T14:15:50.413Z,2.48
2023-03-07T14:18:26.171Z,2.33
2023-03-07T14:21:26.227Z,2.28
2023-03-07T14:24:10.659Z,2.19
2023-03-07T14:26:42.128Z,2.16
2023-03-07T14:29:24.410Z,2.13
2023-03-07T14:31:54.554Z,2.12
2023-03-07T14:34:21.544Z,2.15
2023-03-07T14:37:07.071Z,2.28
2023-03-07T14:40:15.870Z,2.35
2023-03-07T14:43:20.550Z,2.26
2023-03-07T14:46:12.854Z,2.14
2023-03-07T14:48:54.883Z,2.16
2023-03-07T14:51:26.381Z,2.10
2023-03-07T14:53:56.060Z,2.15
2023-03-07T14:56:32.405Z,2.22
2023-03-07T14:59:01.919Z,2.12
2023-03-07T15:01:35.558Z,2.04
2023-03-07T15:04:03.377Z,2.11
2023-03-07T15:06:30.975Z,2.22
2023-03-07T15:09:01.152Z,2.24
2023-03-07T15:11:37.669Z,2.28
2023-03-07T15:14:30.689Z,2.29
2023-03-07T15:17:05.033Z,2.30
2023-03-07T15:19:40.743Z,2.33
2023-03-07T15:22:17.750Z,2.42
2023-03-07T15:24:48.985Z,2.45
2023-03-07T15:27:31.438Z,2.52
2023-03-07T15:30:03.069Z,2.54
2023-03-07T15:32:38.936Z,2.37
2023-03-07T15:35:05.929Z,2.36
2023-03-07T15:37:34.467Z,2.41
2023-03-07T15:40:22.378Z,2.43
2023-03-07T15:42:53.634Z,2.58
2023-03-07T15:45:38.431Z,2.56
2023-03-07T15:48:16.954Z,2.55
2023-03-07T15:50:51.057Z,2.56
2023-03-07T15:53:27.741Z,2.58
2023-03-07T15:56:00.600Z,2.50
2023-03-07T15:58:29.859Z,2.47
2023-03-07T16:01:05.946Z,2.47
2023-03-07T16:03:33.465Z,2.42
2023-03-07T16:06:01.709Z,2.38
2023-03-07T16:08:29.225Z,2.42
2023-03-07T16:11:02.795Z,2.36
2023-03-07T16:13:32.934Z,2.41
2023-03-07T16:16:07.373Z,2.39
2023-03-07T16:18:34.936Z,2.36
2023-03-07T16:21:01.960Z,2.39
2023-03-07T16:23:31.247Z,2.43
2023-03-07T16:26:02.623Z,2.44
2023-03-07T16:28:29.815Z,2.40
2023-03-07T16:30:57.493Z,2.31
2023-03-07T16:33:24.844Z,2.43
2023-03-07T16:35:52.573Z,2.41
2023-03-07T16:38:19.694Z,2.43
2023-03-07T16:40:46.779Z,2.47
2023-03-07T16:43:34.988Z,2.37
2023-03-07T16:46:04.716Z,2.38
2023-03-07T16:48:32.580Z,2.33
2023-03-07T16:50:59.583Z,2.35
2023-03-07T16:53:29.281Z,2.46
2023-03-07T16:55:59.439Z,2.43
2023-03-07T16:58:31.001Z,2.32
2023-03-07T17:01:01.073Z,2.30
2023-03-07T17:03:30.416Z,2.34
2023-03-07T17:06:00.420Z,2.42
2023-03-07T17:08:27.804Z,2.43
2023-03-07T17:10:55.543Z,2.35
2023-03-07T17:13:23.078Z,2.36
2023-03-07T17:15:50.302Z,2.28
2023-03-07T17:18:17.367Z,2.32
2023-03-07T17:20:44.429Z,2.34
2023-03-07T17:23:11.435Z,2.37
2023-03-07T17:25:40.130Z,2.11
2023-03-07T17:28:12.733Z,1.88
2023-03-07T17:30:42.928Z,1.41
2023-03-07T17:33:11.781Z,1.08
2023-03-07T17:35:39.035Z,0.88
2023-03-07T17:38:06.293Z,0.72
2023-03-07T17:40:33.361Z,0.52
2023-03-07T17:43:00.398Z,0.60
2023-03-07T17:45:28.408Z,0.55
2023-03-07T17:47:55.550Z,0.54
2023-03-07T17:50:26.213Z,0.53
2023-03-07T17:52:54.786Z,0.55
2023-03-07T17:55:26.352Z,0.60
2023-03-07T17:57:53.823Z,0.49
2023-03-07T18:00:22.045Z,0.47
2023-03-07T18:02:49.258Z,0.54
2023-03-07T18:05:16.407Z,0.51
2023-03-07T18:07:43.518Z,0.53
2023-03-07T18:10:12.627Z,0.50
2023-03-07T18:12:39.825Z,0.51
2023-03-07T18:15:11.867Z,0.40
2023-03-07T18:17:47.774Z,0.51
2023-03-07T18:20:20.321Z,0.49
2023-03-07T18:22:48.363Z,0.49
2023-03-07T18:25:17.889Z,0.46
2023-03-07T18:27:45.983Z,0.45
2023-03-07T18:30:14.015Z,0.46
2023-03-07T18:32:41.204Z,0.42
2023-03-07T18:35:08.691Z,0.42
2023-03-07T18:37:35.820Z,0.41
2023-03-07T18:40:04.268Z,0.42
2023-03-07T18:42:31.324Z,0.42
2023-03-07T18:44:58.731Z,0.39
2023-03-07T18:47:25.724Z,0.42
2023-03-07T18:49:52.840Z,0.43
2023-03-07T18:52:19.887Z,0.41
2023-03-07T18:54:48.434Z,0.34
2023-03-07T18:57:15.678Z,0.36
2023-03-07T18:59:42.767Z,0.35
2023-03-07T19:02:10.491Z,0.30
2023-03-07T19:04:37.803Z,0.23
2023-03-07T19:07:04.831Z,0.24
2023-03-07T19:09:32.047Z,0.22
2023-03-07T19:11:59.134Z,0.22
2023-03-07T19:14:26.436Z,0.21
2023-03-07T19:16:54.316Z,0.19
2023-03-07T19:19:21.435Z,0.22
2023-03-07T19:21:48.615Z,0.22
2023-03-07T19:24:15.615Z,0.19
2023-03-07T19:26:43.313Z,0.10
2023-03-07T19:29:12.196Z,0.18
2023-03-07T19:31:39.312Z,0.06
2023-03-07T19:34:06.615Z,0.14
2023-03-07T19:36:35.232Z,0.11
2023-03-07T19:39:04.121Z,0.11
2023-03-07T19:41:32.089Z,0.09
2023-03-07T19:44:00.921Z,0.03
2023-03-07T19:46:31.122Z,0.01
2023-03-07T19:49:01.267Z,-0.06
2023-03-07T19:51:31.111Z,-0.07
2023-03-07T19:53:58.788Z,-0.05
2023-03-07T19:56:30.379Z,-0.05
2023-03-07T19:59:00.123Z,-0.10
2023-03-07T20:01:28.543Z,-0.11
2023-03-07T20:03:56.051Z,-0.08
2023-03-07T20:06:25.531Z,-0.08
2023-03-07T20:08:54.705Z,-0.11
2023-03-07T20:11:30.886Z,-0.09
2023-03-07T20:14:00.317Z,-0.08
2023-03-07T20:16:31.464Z,-0.08
2023-03-07T20:19:04.185Z,-0.03
2023-03-07T20:21:32.998Z,0.01
2023-03-07T20:24:00.252Z,0.05
2023-03-07T20:26:36.439Z,0.10
2023-03-07T20:29:05.619Z,0.12
2023-03-07T20:31:33.186Z,0.14
2023-03-07T20:34:00.388Z,0.16
2023-03-07T20:36:30.192Z,0.25
2023-03-07T20:38:59.803Z,0.29
2023-03-07T20:41:32.307Z,0.23
2023-03-07T20:44:04.678Z,0.17
2023-03-07T20:46:32.746Z,0.18
2023-03-07T20:49:01.588Z,0.14
2023-03-07T20:51:31.855Z,0.14
2023-03-07T20:54:11.823Z,0.09
2023-03-07T20:56:39.641Z,0.11
2023-03-07T20:59:07.695Z,0.04
2023-03-07T21:01:35.543Z,0.02
2023-03-07T21:04:07.938Z,-0.04
2023-03-07T21:06:36.542Z,-0.12
2023-03-07T21:09:07.997Z,-0.24
2023-03-07T21:11:36.975Z,-0.23
2023-03-07T21:14:04.216Z,-0.27
2023-03-07T21:16:31.639Z,-0.38
2023-03-07T21:19:01.619Z,-0.31
2023-03-07T21:21:30.310Z,-0.33
2023-03-07T21:23:58.458Z,-0.36
2023-03-07T21:26:28.608Z,-0.36
2023-03-07T21:28:57.450Z,-0.48
2023-03-07T21:31:29.684Z,-0.35
2023-03-07T21:34:00.436Z,-0.34
2023-03-07T21:36:29.318Z,-0.37
2023-03-07T21:38:56.361Z,-0.34
2023-03-07T21:41:25.160Z,-0.35
2023-03-07T21:43:54.319Z,-0.42
2023-03-07T21:46:21.978Z,-0.39
2023-03-07T21:48:49.340Z,-0.40
2023-03-07T21:51:16.663Z,-0.41
2023-03-07T21:53:43.911Z,-0.43
2023-03-07T21:56:13.515Z,-0.51
2023-03-07T21:58:40.831Z,-0.50
2023-03-07T22:01:12.963Z,-0.48
2023-03-07T22:03:40.623Z,-0.46
2023-03-07T22:06:09.762Z,-0.51
2023-03-07T22:08:37.214Z,-0.52
2023-03-07T22:11:06.921Z,-0.54
2023-03-07T22:13:36.193Z,-0.57
2023-03-07T22:16:06.122Z,-0.65
2023-03-07T22:18:33.237Z,-0.60
2023-03-07T22:21:05.827Z,-0.71
2023-03-07T22:23:32.880Z,-0.68
2023-03-07T22:26:04.220Z,-0.71
2023-03-07T22:28:31.353Z,-0.74
2023-03-07T22:31:03.602Z,-0.74
2023-03-07T22:33:31.215Z,-0.75
2023-03-07T22:36:00.762Z,-0.74
2023-03-07T22:38:29.157Z,-0.78
2023-03-07T22:41:03.423Z,-0.76
2023-03-07T22:43:32.152Z,-0.77
2023-03-07T22:45:59.671Z,-0.76
2023-03-07T22:48:28.798Z,-0.78
2023-03-07T22:50:56.239Z,-0.87
2023-03-07T22:53:26.679Z,-0.86
2023-03-07T22:55:54.827Z,-0.90
2023-03-07T22:58:22.063Z,-0.94
2023-03-07T23:00:49.155Z,-0.93
2023-03-07T23:03:16.296Z,-0.94
2023-03-07T23:05:44.278Z,-0.96
2023-03-07T23:08:11.387Z,-0.98
2023-03-07T23:10:38.966Z,-0.98
2023-03-07T23:13:06.178Z,-1.01
2023-03-07T23:15:33.314Z,-0.99
2023-03-07T23:18:00.457Z,-1.00
2023-03-07T23:20:28.924Z,-0.99
2023-03-07T23:22:56.002Z,-1.04
2023-03-07T23:25:23.140Z,-0.99
2023-03-07T23:27:50.288Z,-1.02
2023-03-07T23:30:17.835Z,-1.01
2023-03-07T23:32:45.058Z,-1.02
2023-03-07T23:35:12.622Z,-1.03
2023-03-07T23:37:42.451Z,-1.05
2023-03-07T23:40:11.946Z,-1.09
2023-03-07T23:42:39.249Z,-1.04
2023-03-07T23:45:06.694Z,-1.13
2023-03-07T23:47:34.319Z,-1.06
2023-03-07T23:50:01.327Z,-1.07
2023-03-07T23:52:28.914Z,-1.15
2023-03-07T23:54:56.027Z,-1.16
2023-03-07T23:57:23.057Z,-1.25
2023-03-07T23:59:50.126Z,-1.33
